createdAt,value
2018-07-15T00:00:10.495Z,72
2018-07-15T00:00:22.944Z,72
2018-07-15T00:00:35.415Z,72
2018-07-15T00:00:47.830Z,72
2018-07-15T00:01:00.267Z,72
2018-07-15T00:01:12.707Z,72
2018-07-15T00:01:25.142Z,72
2018-07-15T00:01:37.551Z,72
2018-07-15T00:01:50.069Z,72
2018-07-15T00:02:02.500Z,72
2018-07-15T00:02:14.914Z,72
2018-07-15T00:02:27.321Z,72
2018-07-15T00:02:39.734Z,72
2018-07-15T00:02:52.182Z,72
2018-07-15T00:03:04.595Z,72
2018-07-15T00:03:17.009Z,72
2018-07-15T00:03:29.440Z,72
2018-07-15T00:03:41.849Z,72
2018-07-15T00:03:54.274Z,72
2018-07-15T00:04:06.702Z,72
2018-07-15T00:04:19.132Z,72
2018-07-15T00:04:31.547Z,72
2018-07-15T00:04:43.967Z,72
2018-07-15T00:04:56.389Z,72
2018-07-15T00:05:08.852Z,72
2018-07-15T00:05:21.283Z,72
2018-07-15T00:05:33.737Z,72
2018-07-15T00:05:46.182Z,72
2018-07-15T00:05:58.586Z,72
2018-07-15T00:06:10.983Z,72
2018-07-15T00:06:23.382Z,72
2018-07-15T00:06:35.779Z,72
2018-07-15T00:06:48.343Z,72
2018-07-15T00:07:00.796Z,72
2018-07-15T00:07:13.188Z,72
2018-07-15T00:07:25.592Z,72
2018-07-15T00:07:38.008Z,72
2018-07-15T00:07:50.423Z,72
2018-07-15T00:08:02.832Z,72
2018-07-15T00:08:15.307Z,72
2018-07-15T00:08:27.698Z,72
2018-07-15T00:08:40.107Z,72
2018-07-15T00:08:52.526Z,72
2018-07-15T00:09:04.920Z,72
2018-07-15T00:09:17.317Z,72
2018-07-15T00:09:29.737Z,72
2018-07-15T00:09:42.175Z,72
2018-07-15T00:09:54.580Z,72
2018-07-15T00:10:06.975Z,72
2018-07-15T00:10:19.380Z,72
2018-07-15T00:10:31.779Z,72
2018-07-15T00:10:44.186Z,72
2018-07-15T00:10:56.582Z,72
2018-07-15T00:11:08.977Z,72
2018-07-15T00:11:21.461Z,72
2018-07-15T00:11:33.862Z,72
2018-07-15T00:11:46.353Z,72
2018-07-15T00:11:58.810Z,72
2018-07-15T00:12:11.221Z,72
2018-07-15T00:12:23.627Z,72
2018-07-15T00:12:36.181Z,72
2018-07-15T00:12:48.597Z,72
2018-07-15T00:13:01.182Z,72
2018-07-15T00:13:13.572Z,72
2018-07-15T00:13:26.029Z,72
2018-07-15T00:13:38.439Z,72
2018-07-15T00:13:50.855Z,72
2018-07-15T00:14:03.273Z,72
2018-07-15T00:14:15.681Z,72
2018-07-15T00:14:28.130Z,72
2018-07-15T00:14:40.528Z,72
2018-07-15T00:14:52.932Z,72
2018-07-15T00:15:05.331Z,72
2018-07-15T00:15:17.730Z,72
2018-07-15T00:15:30.151Z,72
2018-07-15T00:15:42.573Z,72
2018-07-15T00:15:55.016Z,72
2018-07-15T00:16:07.470Z,72
2018-07-15T00:16:19.880Z,72
2018-07-15T00:16:32.285Z,72
2018-07-15T00:16:44.697Z,72
2018-07-15T00:16:57.101Z,72
2018-07-15T00:17:09.570Z,72
2018-07-15T00:17:22.008Z,72
2018-07-15T00:17:34.441Z,73
2018-07-15T00:17:46.844Z,73
2018-07-15T00:17:59.324Z,73
2018-07-15T00:18:11.813Z,73
2018-07-15T00:18:24.225Z,73
2018-07-15T00:18:36.627Z,73
2018-07-15T00:18:49.016Z,73
2018-07-15T00:19:01.445Z,73
2018-07-15T00:19:13.859Z,73
2018-07-15T00:19:26.273Z,73
2018-07-15T00:19:38.674Z,73
2018-07-15T00:19:51.096Z,73
2018-07-15T00:20:03.511Z,73
2018-07-15T00:20:16.085Z,73
2018-07-15T00:20:28.587Z,73
2018-07-15T00:20:41.276Z,73
2018-07-15T00:20:53.675Z,73
2018-07-15T00:21:06.091Z,73
2018-07-15T00:21:18.476Z,73
2018-07-15T00:21:30.886Z,73
2018-07-15T00:21:43.299Z,73
2018-07-15T00:21:55.717Z,73
2018-07-15T00:22:08.119Z,73
2018-07-15T00:22:20.544Z,73
2018-07-15T00:22:32.962Z,73
2018-07-15T00:22:45.398Z,73
2018-07-15T00:22:57.801Z,73
2018-07-15T00:23:10.233Z,73
2018-07-15T00:23:22.668Z,73
2018-07-15T00:23:35.071Z,73
2018-07-15T00:23:47.486Z,73
2018-07-15T00:23:59.878Z,73
2018-07-15T00:24:12.291Z,73
2018-07-15T00:24:24.728Z,73
2018-07-15T00:24:37.109Z,73
2018-07-15T00:24:49.510Z,73
2018-07-15T00:25:01.984Z,73
2018-07-15T00:25:14.386Z,73
2018-07-15T00:25:26.801Z,73
2018-07-15T00:25:39.242Z,73
2018-07-15T00:25:51.654Z,73
2018-07-15T00:26:04.111Z,73
2018-07-15T00:26:16.509Z,73
2018-07-15T00:26:28.908Z,73
2018-07-15T00:26:41.346Z,73
2018-07-15T00:26:53.756Z,73
2018-07-15T00:27:06.207Z,73
2018-07-15T00:27:18.615Z,73
2018-07-15T00:27:31.016Z,73
2018-07-15T00:27:43.485Z,73
2018-07-15T00:27:55.887Z,73
2018-07-15T00:28:08.320Z,73
2018-07-15T00:28:20.853Z,73
2018-07-15T00:28:33.252Z,73
2018-07-15T00:28:45.675Z,73
2018-07-15T00:28:58.155Z,73
2018-07-15T00:29:10.590Z,73
2018-07-15T00:29:22.985Z,73
2018-07-15T00:29:35.375Z,73
2018-07-15T00:29:47.804Z,73
2018-07-15T00:30:00.201Z,73
2018-07-15T00:30:12.600Z,73
2018-07-15T00:30:24.997Z,73
2018-07-15T00:30:37.399Z,73
2018-07-15T00:30:49.810Z,73
2018-07-15T00:31:02.239Z,73
2018-07-15T00:31:14.810Z,73
2018-07-15T00:31:27.225Z,73
2018-07-15T00:31:39.637Z,73
2018-07-15T00:31:52.019Z,73
2018-07-15T00:32:04.402Z,73
2018-07-15T00:32:16.810Z,73
2018-07-15T00:32:29.206Z,73
2018-07-15T00:32:41.623Z,73
2018-07-15T00:32:54.043Z,73
2018-07-15T00:33:06.477Z,73
2018-07-15T00:33:18.905Z,73
2018-07-15T00:33:31.311Z,73
2018-07-15T00:33:43.709Z,73
2018-07-15T00:33:56.099Z,73
2018-07-15T00:34:08.512Z,73
2018-07-15T00:34:20.940Z,73
2018-07-15T00:34:33.423Z,73
2018-07-15T00:34:45.821Z,73
2018-07-15T00:34:58.228Z,73
2018-07-15T00:35:10.640Z,73
2018-07-15T00:35:23.041Z,73
2018-07-15T00:35:35.444Z,73
2018-07-15T00:35:47.837Z,73
2018-07-15T00:36:00.231Z,73
2018-07-15T00:36:12.643Z,73
2018-07-15T00:36:25.108Z,73
2018-07-15T00:36:37.513Z,73
2018-07-15T00:36:49.932Z,73
2018-07-15T00:37:02.319Z,73
2018-07-15T00:37:14.747Z,73
2018-07-15T00:37:27.137Z,73
2018-07-15T00:37:39.542Z,73
2018-07-15T00:37:51.951Z,73
2018-07-15T00:38:04.369Z,73
2018-07-15T00:38:16.764Z,73
2018-07-15T00:38:29.232Z,73
2018-07-15T00:38:41.635Z,73
2018-07-15T00:38:54.079Z,73
2018-07-15T00:39:06.489Z,73
2018-07-15T00:39:18.905Z,73
2018-07-15T00:39:31.288Z,73
2018-07-15T00:39:43.697Z,73
2018-07-15T00:39:56.112Z,73
2018-07-15T00:40:08.568Z,73
2018-07-15T00:40:20.983Z,73
2018-07-15T00:40:33.359Z,73
2018-07-15T00:40:45.801Z,73
2018-07-15T00:40:58.205Z,73
2018-07-15T00:41:10.580Z,73
2018-07-15T00:41:23.074Z,73
2018-07-15T00:41:35.473Z,73
2018-07-15T00:41:47.867Z,73
2018-07-15T00:42:00.263Z,73
2018-07-15T00:42:12.683Z,73
2018-07-15T00:42:25.092Z,73
2018-07-15T00:42:37.493Z,73
2018-07-15T00:42:49.887Z,73
2018-07-15T00:43:02.299Z,73
2018-07-15T00:43:14.767Z,73
2018-07-15T00:43:27.167Z,73
2018-07-15T00:43:39.611Z,73
2018-07-15T00:43:52.026Z,73
2018-07-15T00:44:04.426Z,73
2018-07-15T00:44:16.834Z,73
2018-07-15T00:44:29.255Z,73
2018-07-15T00:44:41.655Z,73
2018-07-15T00:44:54.206Z,73
2018-07-15T00:45:06.608Z,73
2018-07-15T00:45:19.053Z,73
2018-07-15T00:45:31.465Z,73
2018-07-15T00:45:43.874Z,73
2018-07-15T00:45:56.266Z,73
2018-07-15T00:46:08.675Z,73
2018-07-15T00:46:21.095Z,73
2018-07-15T00:46:33.533Z,73
2018-07-15T00:46:45.964Z,74
2018-07-15T00:46:58.385Z,74
2018-07-15T00:47:10.804Z,74
2018-07-15T00:47:23.205Z,74
2018-07-15T00:47:35.579Z,74
2018-07-15T00:47:47.976Z,74
2018-07-15T00:48:00.393Z,74
2018-07-15T00:48:12.812Z,74
2018-07-15T00:48:25.215Z,74
2018-07-15T00:48:37.619Z,74
2018-07-15T00:48:50.340Z,74
2018-07-15T00:49:02.753Z,74
2018-07-15T00:49:15.158Z,74
2018-07-15T00:49:27.596Z,74
2018-07-15T00:49:40.014Z,74
2018-07-15T00:49:52.408Z,74
2018-07-15T00:50:04.833Z,74
2018-07-15T00:50:17.250Z,74
2018-07-15T00:50:29.644Z,74
2018-07-15T00:50:42.051Z,74
2018-07-15T00:50:54.464Z,74
2018-07-15T00:51:06.878Z,74
2018-07-15T00:51:19.297Z,74
2018-07-15T00:51:31.675Z,74
2018-07-15T00:51:44.077Z,74
2018-07-15T00:51:56.568Z,74
2018-07-15T00:52:08.974Z,74
2018-07-15T00:52:21.481Z,74
2018-07-15T00:52:33.868Z,74
2018-07-15T00:52:46.268Z,74
2018-07-15T00:52:58.671Z,74
2018-07-15T00:53:11.200Z,74
2018-07-15T00:53:23.661Z,74
2018-07-15T00:53:36.078Z,74
2018-07-15T00:53:48.508Z,74
2018-07-15T00:54:00.913Z,74
2018-07-15T00:54:13.312Z,74
2018-07-15T00:54:25.713Z,74
2018-07-15T00:54:38.119Z,74
2018-07-15T00:54:50.509Z,74
2018-07-15T00:55:02.900Z,74
2018-07-15T00:55:15.725Z,74
2018-07-15T00:55:28.990Z,74
2018-07-15T00:55:41.418Z,74
2018-07-15T00:55:53.819Z,74
2018-07-15T00:56:06.251Z,74
2018-07-15T00:56:18.657Z,74
2018-07-15T00:56:31.277Z,74
2018-07-15T00:56:43.675Z,74
2018-07-15T00:56:56.078Z,74
2018-07-15T00:57:08.545Z,74
2018-07-15T00:57:20.957Z,74
2018-07-15T00:57:33.382Z,74
2018-07-15T00:57:45.813Z,74
2018-07-15T00:57:58.218Z,74
2018-07-15T00:58:10.648Z,74
2018-07-15T00:58:23.090Z,74
2018-07-15T00:58:35.496Z,74
2018-07-15T00:58:47.913Z,74
2018-07-15T00:59:00.315Z,74
2018-07-15T00:59:12.714Z,74
2018-07-15T00:59:25.149Z,74
2018-07-15T00:59:37.673Z,74
2018-07-15T00:59:50.080Z,74
2018-07-15T01:00:02.551Z,74
2018-07-15T01:00:15.183Z,74
2018-07-15T01:00:27.619Z,74
2018-07-15T01:00:40.078Z,74
2018-07-15T01:00:52.519Z,74
2018-07-15T01:01:04.956Z,74
2018-07-15T01:01:17.404Z,74
2018-07-15T01:01:29.819Z,74
2018-07-15T01:01:42.255Z,74
2018-07-15T01:01:54.937Z,74
2018-07-15T01:02:07.360Z,74
2018-07-15T01:02:19.768Z,74
2018-07-15T01:02:32.239Z,74
2018-07-15T01:02:44.674Z,74
2018-07-15T01:02:57.123Z,74
2018-07-15T01:03:09.552Z,74
2018-07-15T01:03:21.970Z,74
2018-07-15T01:03:34.384Z,74
2018-07-15T01:03:46.790Z,74
2018-07-15T01:03:59.247Z,74
2018-07-15T01:04:11.685Z,74
2018-07-15T01:04:24.088Z,74
2018-07-15T01:04:36.503Z,74
2018-07-15T01:04:48.904Z,74
2018-07-15T01:05:01.379Z,74
2018-07-15T01:05:13.819Z,74
2018-07-15T01:05:26.222Z,74
2018-07-15T01:05:38.627Z,74
2018-07-15T01:05:51.038Z,74
2018-07-15T01:06:03.477Z,74
2018-07-15T01:06:15.892Z,74
2018-07-15T01:06:28.304Z,74
2018-07-15T01:06:40.726Z,74
2018-07-15T01:06:53.141Z,74
2018-07-15T01:07:05.625Z,74
2018-07-15T01:07:18.065Z,74
2018-07-15T01:07:30.475Z,74
2018-07-15T01:07:42.871Z,74
2018-07-15T01:07:55.280Z,74
2018-07-15T01:08:07.716Z,74
2018-07-15T01:08:20.137Z,74
2018-07-15T01:08:32.545Z,74
2018-07-15T01:08:44.967Z,74
2018-07-15T01:08:57.381Z,74
2018-07-15T01:09:09.811Z,74
2018-07-15T01:09:22.216Z,74
2018-07-15T01:09:34.652Z,74
2018-07-15T01:09:47.043Z,75
2018-07-15T01:09:59.440Z,75
2018-07-15T01:10:11.881Z,75
2018-07-15T01:10:24.327Z,75
2018-07-15T01:10:36.731Z,75
2018-07-15T01:10:49.126Z,75
2018-07-15T01:11:01.526Z,75
2018-07-15T01:11:13.955Z,75
2018-07-15T01:11:26.353Z,75
2018-07-15T01:11:38.752Z,75
2018-07-15T01:11:51.160Z,75
2018-07-15T01:12:03.597Z,75
2018-07-15T01:12:15.996Z,74
2018-07-15T01:12:28.390Z,74
2018-07-15T01:12:40.786Z,74
2018-07-15T01:12:53.222Z,74
2018-07-15T01:13:05.790Z,75
2018-07-15T01:13:18.236Z,75
2018-07-15T01:13:30.665Z,75
2018-07-15T01:13:43.063Z,75
2018-07-15T01:13:55.488Z,75
2018-07-15T01:14:07.911Z,75
2018-07-15T01:14:20.342Z,75
2018-07-15T01:14:32.763Z,75
2018-07-15T01:14:45.157Z,75
2018-07-15T01:14:57.549Z,75
2018-07-15T01:15:09.987Z,75
2018-07-15T01:15:22.390Z,75
2018-07-15T01:15:34.807Z,75
2018-07-15T01:15:47.230Z,75
2018-07-15T01:15:59.638Z,75
2018-07-15T01:16:12.046Z,75
2018-07-15T01:16:24.444Z,75
2018-07-15T01:16:36.911Z,75
2018-07-15T01:16:49.356Z,75
2018-07-15T01:17:01.778Z,75
2018-07-15T01:17:14.183Z,75
2018-07-15T01:17:26.579Z,75
2018-07-15T01:17:38.987Z,75
2018-07-15T01:17:51.444Z,75
2018-07-15T01:18:03.835Z,75
2018-07-15T01:18:16.304Z,75
2018-07-15T01:18:28.732Z,75
2018-07-15T01:18:41.113Z,75
2018-07-15T01:18:53.620Z,75
2018-07-15T01:19:06.036Z,75
2018-07-15T01:19:18.457Z,75
2018-07-15T01:19:30.880Z,75
2018-07-15T01:19:43.286Z,75
2018-07-15T01:19:55.678Z,75
2018-07-15T01:20:08.076Z,75
2018-07-15T01:20:20.471Z,75
2018-07-15T01:20:33.015Z,75
2018-07-15T01:20:45.488Z,75
2018-07-15T01:20:57.897Z,75
2018-07-15T01:21:10.290Z,75
2018-07-15T01:21:22.760Z,75
2018-07-15T01:21:35.180Z,75
2018-07-15T01:21:47.571Z,76
2018-07-15T01:21:59.973Z,76
2018-07-15T01:22:12.376Z,76
2018-07-15T01:22:24.781Z,76
2018-07-15T01:22:37.205Z,75
2018-07-15T01:22:49.601Z,75
2018-07-15T01:23:02.063Z,75
2018-07-15T01:23:14.459Z,75
2018-07-15T01:23:26.872Z,76
2018-07-15T01:23:39.291Z,76
2018-07-15T01:23:51.711Z,76
2018-07-15T01:24:04.140Z,76
2018-07-15T01:24:16.536Z,76
2018-07-15T01:24:28.963Z,76
2018-07-15T01:24:41.389Z,76
2018-07-15T01:24:53.772Z,76
2018-07-15T01:25:06.159Z,76
2018-07-15T01:25:18.573Z,76
2018-07-15T01:25:30.954Z,76
2018-07-15T01:25:43.450Z,76
2018-07-15T01:25:55.860Z,76
2018-07-15T01:26:08.252Z,76
2018-07-15T01:26:20.721Z,76
2018-07-15T01:26:33.193Z,76
2018-07-15T01:26:45.588Z,76
2018-07-15T01:26:57.983Z,76
2018-07-15T01:27:10.424Z,76
2018-07-15T01:27:22.825Z,76
2018-07-15T01:27:35.243Z,76
2018-07-15T01:27:47.637Z,76
2018-07-15T01:28:00.059Z,76
2018-07-15T01:28:12.482Z,76
2018-07-15T01:28:24.908Z,76
2018-07-15T01:28:37.290Z,76
2018-07-15T01:28:49.688Z,76
2018-07-15T01:29:02.094Z,76
2018-07-15T01:29:14.516Z,76
2018-07-15T01:29:26.907Z,76
2018-07-15T01:29:39.298Z,76
2018-07-15T01:29:51.737Z,76
2018-07-15T01:30:04.208Z,76
2018-07-15T01:30:16.611Z,76
2018-07-15T01:30:29.047Z,76
2018-07-15T01:30:41.473Z,76
2018-07-15T01:30:53.888Z,76
2018-07-15T01:31:06.292Z,76
2018-07-15T01:31:18.876Z,76
2018-07-15T01:31:31.344Z,76
2018-07-15T01:31:43.819Z,76
2018-07-15T01:31:56.394Z,76
2018-07-15T01:32:08.805Z,76
2018-07-15T01:32:21.252Z,76
2018-07-15T01:32:33.657Z,76
2018-07-15T01:32:46.063Z,76
2018-07-15T01:32:58.485Z,76
2018-07-15T01:33:10.890Z,76
2018-07-15T01:33:23.304Z,76
2018-07-15T01:33:35.736Z,76
2018-07-15T01:33:48.155Z,76
2018-07-15T01:34:00.563Z,76
2018-07-15T01:34:12.975Z,76
2018-07-15T01:34:25.358Z,76
2018-07-15T01:34:37.793Z,76
2018-07-15T01:34:50.199Z,76
2018-07-15T01:35:02.631Z,76
2018-07-15T01:35:15.057Z,76
2018-07-15T01:35:27.457Z,76
2018-07-15T01:35:39.857Z,76
2018-07-15T01:35:52.258Z,76
2018-07-15T01:36:04.643Z,76
2018-07-15T01:36:17.058Z,76
2018-07-15T01:36:29.491Z,76
2018-07-15T01:36:41.925Z,76
2018-07-15T01:36:54.364Z,76
2018-07-15T01:37:06.766Z,75
2018-07-15T01:37:19.171Z,75
2018-07-15T01:37:31.591Z,75
2018-07-15T01:37:43.984Z,75
2018-07-15T01:37:56.405Z,75
2018-07-15T01:38:08.795Z,75
2018-07-15T01:38:21.209Z,75
2018-07-15T01:38:33.696Z,75
2018-07-15T01:38:46.101Z,76
2018-07-15T01:38:58.510Z,76
2018-07-15T01:39:10.981Z,76
2018-07-15T01:39:23.389Z,76
2018-07-15T01:39:35.903Z,76
2018-07-15T01:39:48.327Z,76
2018-07-15T01:40:00.730Z,76
2018-07-15T01:40:13.145Z,76
2018-07-15T01:40:25.540Z,75
2018-07-15T01:40:37.961Z,75
2018-07-15T01:40:50.351Z,75
2018-07-15T01:41:02.735Z,75
2018-07-15T01:41:15.142Z,76
2018-07-15T01:41:27.528Z,76
2018-07-15T01:41:39.990Z,76
2018-07-15T01:41:52.419Z,76
2018-07-15T01:42:04.840Z,76
2018-07-15T01:42:17.239Z,76
2018-07-15T01:42:29.662Z,76
2018-07-15T01:42:42.088Z,76
2018-07-15T01:42:54.506Z,76
2018-07-15T01:43:06.935Z,75
2018-07-15T01:43:19.360Z,75
2018-07-15T01:43:31.789Z,75
2018-07-15T01:43:44.175Z,75
2018-07-15T01:43:56.580Z,76
2018-07-15T01:44:08.985Z,76
2018-07-15T01:44:21.401Z,76
2018-07-15T01:44:33.869Z,76
2018-07-15T01:44:46.273Z,76
2018-07-15T01:44:58.815Z,76
2018-07-15T01:45:11.256Z,76
2018-07-15T01:45:23.673Z,76
2018-07-15T01:45:36.071Z,76
2018-07-15T01:45:48.483Z,76
2018-07-15T01:46:00.883Z,76
2018-07-15T01:46:13.311Z,76
2018-07-15T01:46:25.729Z,76
2018-07-15T01:46:38.122Z,76
2018-07-15T01:46:50.528Z,76
2018-07-15T01:47:02.931Z,76
2018-07-15T01:47:15.334Z,76
2018-07-15T01:47:27.760Z,76
2018-07-15T01:47:40.180Z,76
2018-07-15T01:47:52.574Z,76
2018-07-15T01:48:04.995Z,76
2018-07-15T01:48:17.390Z,76
2018-07-15T01:48:29.792Z,76
2018-07-15T01:48:42.211Z,76
2018-07-15T01:48:54.756Z,76
2018-07-15T01:49:07.196Z,76
2018-07-15T01:49:19.624Z,76
2018-07-15T01:49:32.069Z,76
2018-07-15T01:49:44.465Z,76
2018-07-15T01:49:56.911Z,76
2018-07-15T01:50:09.316Z,76
2018-07-15T01:50:21.800Z,76
2018-07-15T01:50:34.253Z,76
2018-07-15T01:50:46.666Z,76
2018-07-15T01:50:59.074Z,76
2018-07-15T01:51:11.508Z,76
2018-07-15T01:51:23.939Z,76
2018-07-15T01:51:36.371Z,76
2018-07-15T01:51:48.781Z,76
2018-07-15T01:52:01.245Z,76
2018-07-15T01:52:13.650Z,76
2018-07-15T01:52:26.063Z,76
2018-07-15T01:52:38.524Z,76
2018-07-15T01:52:50.938Z,76
2018-07-15T01:53:03.702Z,76
2018-07-15T01:53:16.257Z,76
2018-07-15T01:53:28.652Z,76
2018-07-15T01:53:41.045Z,76
2018-07-15T01:53:53.439Z,76
2018-07-15T01:54:05.848Z,76
2018-07-15T01:54:18.258Z,76
2018-07-15T01:54:30.702Z,76
2018-07-15T01:54:43.132Z,76
2018-07-15T01:54:55.548Z,76
2018-07-15T01:55:07.964Z,76
2018-07-15T01:55:20.420Z,76
2018-07-15T01:55:32.847Z,76
2018-07-15T01:55:45.268Z,76
2018-07-15T01:55:57.671Z,77
2018-07-15T01:56:10.085Z,77
2018-07-15T01:56:22.482Z,77
2018-07-15T01:56:34.874Z,77
2018-07-15T01:56:47.282Z,77
2018-07-15T01:56:59.666Z,77
2018-07-15T01:57:12.065Z,77
2018-07-15T01:57:24.462Z,77
2018-07-15T01:57:36.863Z,77
2018-07-15T01:57:49.285Z,77
2018-07-15T01:58:01.709Z,77
2018-07-15T01:58:14.141Z,77
2018-07-15T01:58:26.560Z,77
2018-07-15T01:58:39.006Z,77
2018-07-15T01:58:51.413Z,77
2018-07-15T01:59:03.837Z,77
2018-07-15T01:59:16.304Z,77
2018-07-15T01:59:28.728Z,77
2018-07-15T01:59:41.143Z,77
2018-07-15T01:59:53.606Z,77
2018-07-15T02:00:06.016Z,77
2018-07-15T02:00:18.723Z,77
2018-07-15T02:00:31.162Z,77
2018-07-15T02:00:43.599Z,77
2018-07-15T02:00:56.035Z,77
2018-07-15T02:01:08.446Z,77
2018-07-15T02:01:20.870Z,77
2018-07-15T02:01:33.295Z,77
2018-07-15T02:01:45.796Z,77
2018-07-15T02:01:58.223Z,77
2018-07-15T02:02:10.685Z,77
2018-07-15T02:02:23.110Z,77
2018-07-15T02:02:35.514Z,77
2018-07-15T02:02:47.912Z,77
2018-07-15T02:03:00.313Z,77
2018-07-15T02:03:12.769Z,77
2018-07-15T02:03:25.197Z,77
2018-07-15T02:03:37.606Z,78
2018-07-15T02:03:50.021Z,78
2018-07-15T02:04:02.413Z,78
2018-07-15T02:04:14.808Z,78
2018-07-15T02:04:27.215Z,78
2018-07-15T02:04:39.612Z,78
2018-07-15T02:04:52.031Z,78
2018-07-15T02:05:04.429Z,78
2018-07-15T02:05:16.996Z,78
2018-07-15T02:05:29.426Z,78
2018-07-15T02:05:41.817Z,78
2018-07-15T02:05:54.239Z,78
2018-07-15T02:06:06.670Z,78
2018-07-15T02:06:19.095Z,78
2018-07-15T02:06:31.512Z,78
2018-07-15T02:06:43.924Z,78
2018-07-15T02:06:56.315Z,78
2018-07-15T02:07:08.720Z,78
2018-07-15T02:07:21.117Z,78
2018-07-15T02:07:33.512Z,78
2018-07-15T02:07:45.924Z,78
2018-07-15T02:07:58.360Z,78
2018-07-15T02:08:10.794Z,78
2018-07-15T02:08:23.203Z,78
2018-07-15T02:08:35.594Z,78
2018-07-15T02:08:47.978Z,78
2018-07-15T02:09:00.390Z,78
2018-07-15T02:09:12.813Z,78
2018-07-15T02:09:25.216Z,78
2018-07-15T02:09:37.633Z,78
2018-07-15T02:09:50.032Z,78
2018-07-15T02:10:02.561Z,78
2018-07-15T02:10:15.455Z,78
2018-07-15T02:10:27.853Z,78
2018-07-15T02:10:40.271Z,78
2018-07-15T02:10:52.682Z,78
2018-07-15T02:11:05.083Z,78
2018-07-15T02:11:17.531Z,78
2018-07-15T02:11:29.923Z,78
2018-07-15T02:11:42.308Z,78
2018-07-15T02:11:54.727Z,78
2018-07-15T02:12:07.127Z,78
2018-07-15T02:12:19.537Z,78
2018-07-15T02:12:31.981Z,78
2018-07-15T02:12:44.464Z,78
2018-07-15T02:12:56.863Z,78
2018-07-15T02:13:09.430Z,78
2018-07-15T02:13:21.860Z,78
2018-07-15T02:13:34.289Z,78
2018-07-15T02:13:46.824Z,79
2018-07-15T02:13:59.252Z,79
2018-07-15T02:14:11.675Z,79
2018-07-15T02:14:24.085Z,79
2018-07-15T02:14:36.515Z,79
2018-07-15T02:14:48.968Z,79
2018-07-15T02:15:01.376Z,79
2018-07-15T02:15:13.809Z,79
2018-07-15T02:15:26.255Z,79
2018-07-15T02:15:38.681Z,79
2018-07-15T02:15:51.081Z,79
2018-07-15T02:16:03.486Z,79
2018-07-15T02:16:15.892Z,79
2018-07-15T02:16:28.318Z,79
2018-07-15T02:16:40.712Z,79
2018-07-15T02:16:53.120Z,79
2018-07-15T02:17:05.546Z,79
2018-07-15T02:17:17.955Z,79
2018-07-15T02:17:30.362Z,79
2018-07-15T02:17:42.740Z,79
2018-07-15T02:17:55.161Z,79
2018-07-15T02:18:07.574Z,79
2018-07-15T02:18:19.975Z,79
2018-07-15T02:18:32.374Z,79
2018-07-15T02:18:44.769Z,79
2018-07-15T02:18:57.238Z,79
2018-07-15T02:19:09.657Z,79
2018-07-15T02:19:22.065Z,79
2018-07-15T02:19:34.467Z,79
2018-07-15T02:19:46.916Z,79
2018-07-15T02:19:59.321Z,79
2018-07-15T02:20:11.735Z,79
2018-07-15T02:20:24.153Z,79
2018-07-15T02:20:36.773Z,79
2018-07-15T02:20:49.188Z,79
2018-07-15T02:21:01.619Z,79
2018-07-15T02:21:14.024Z,79
2018-07-15T02:21:26.447Z,79
2018-07-15T02:21:38.868Z,79
2018-07-15T02:21:51.260Z,79
2018-07-15T02:22:03.667Z,79
2018-07-15T02:22:16.071Z,80
2018-07-15T02:22:28.530Z,80
2018-07-15T02:22:40.945Z,80
2018-07-15T02:22:53.347Z,80
2018-07-15T02:23:05.740Z,80
2018-07-15T02:23:18.135Z,80
2018-07-15T02:23:30.546Z,80
2018-07-15T02:23:42.953Z,80
2018-07-15T02:23:55.346Z,80
2018-07-15T02:24:07.752Z,80
2018-07-15T02:24:20.143Z,80
2018-07-15T02:24:32.552Z,80
2018-07-15T02:24:44.954Z,80
2018-07-15T02:24:57.363Z,79
2018-07-15T02:25:09.775Z,79
2018-07-15T02:25:22.169Z,79
2018-07-15T02:25:34.592Z,79
2018-07-15T02:25:46.990Z,80
2018-07-15T02:25:59.408Z,80
2018-07-15T02:26:11.832Z,80
2018-07-15T02:26:24.281Z,80
2018-07-15T02:26:36.693Z,80
2018-07-15T02:26:49.119Z,80
2018-07-15T02:27:01.547Z,80
2018-07-15T02:27:14.016Z,80
2018-07-15T02:27:26.428Z,80
2018-07-15T02:27:38.840Z,80
2018-07-15T02:27:51.268Z,80
2018-07-15T02:28:03.662Z,80
2018-07-15T02:28:16.245Z,80
2018-07-15T02:28:28.636Z,80
2018-07-15T02:28:41.043Z,80
2018-07-15T02:28:53.440Z,80
2018-07-15T02:29:05.844Z,80
2018-07-15T02:29:18.242Z,80
2018-07-15T02:29:30.710Z,80
2018-07-15T02:29:43.127Z,80
2018-07-15T02:29:55.528Z,80
2018-07-15T02:30:07.972Z,80
2018-07-15T02:30:20.411Z,80
2018-07-15T02:30:32.813Z,80
2018-07-15T02:30:45.255Z,80
2018-07-15T02:30:57.682Z,80
2018-07-15T02:31:10.108Z,80
2018-07-15T02:31:22.671Z,80
2018-07-15T02:31:35.091Z,80
2018-07-15T02:31:47.549Z,80
2018-07-15T02:32:00.168Z,80
2018-07-15T02:32:12.582Z,80
2018-07-15T02:32:25.028Z,80
2018-07-15T02:32:37.489Z,80
2018-07-15T02:32:49.919Z,80
2018-07-15T02:33:02.347Z,80
2018-07-15T02:33:14.784Z,80
2018-07-15T02:33:27.181Z,80
2018-07-15T02:33:39.670Z,80
2018-07-15T02:33:52.129Z,80
2018-07-15T02:34:04.570Z,80
2018-07-15T02:34:17.029Z,80
2018-07-15T02:34:29.459Z,80
2018-07-15T02:34:41.871Z,80
2018-07-15T02:34:54.280Z,80
2018-07-15T02:35:06.735Z,81
2018-07-15T02:35:19.183Z,81
2018-07-15T02:35:31.591Z,81
2018-07-15T02:35:44.076Z,81
2018-07-15T02:35:56.498Z,81
2018-07-15T02:36:08.933Z,81
2018-07-15T02:36:21.359Z,81
2018-07-15T02:36:33.992Z,81
2018-07-15T02:36:47.468Z,81
2018-07-15T02:37:00.643Z,81
2018-07-15T02:37:13.077Z,81
2018-07-15T02:37:25.510Z,81
2018-07-15T02:37:37.934Z,81
2018-07-15T02:37:50.372Z,81
2018-07-15T02:38:02.807Z,81
2018-07-15T02:38:15.242Z,81
2018-07-15T02:38:27.677Z,81
2018-07-15T02:38:40.086Z,82
2018-07-15T02:38:52.532Z,82
2018-07-15T02:39:04.984Z,82
2018-07-15T02:39:17.470Z,82
2018-07-15T02:39:29.900Z,82
2018-07-15T02:39:42.495Z,82
2018-07-15T02:39:54.932Z,82
2018-07-15T02:40:07.366Z,82
2018-07-15T02:40:19.800Z,82
2018-07-15T02:40:32.294Z,82
2018-07-15T02:40:44.746Z,82
2018-07-15T02:40:57.178Z,82
2018-07-15T02:41:09.594Z,82
2018-07-15T02:41:22.031Z,82
2018-07-15T02:41:34.491Z,82
2018-07-15T02:41:46.927Z,82
2018-07-15T02:41:59.355Z,82
2018-07-15T02:42:11.781Z,82
2018-07-15T02:42:24.261Z,82
2018-07-15T02:42:36.673Z,82
2018-07-15T02:42:49.089Z,82
2018-07-15T02:43:01.517Z,82
2018-07-15T02:43:13.977Z,82
2018-07-15T02:43:26.400Z,82
2018-07-15T02:43:38.819Z,83
2018-07-15T02:43:51.238Z,83
2018-07-15T02:44:03.681Z,83
2018-07-15T02:44:16.180Z,83
2018-07-15T02:44:28.627Z,83
2018-07-15T02:44:41.071Z,83
2018-07-15T02:44:53.664Z,83
2018-07-15T02:45:06.141Z,83
2018-07-15T02:45:18.549Z,83
2018-07-15T02:45:30.947Z,83
2018-07-15T02:45:43.351Z,83
2018-07-15T02:45:55.784Z,83
2018-07-15T02:46:08.309Z,83
2018-07-15T02:46:20.730Z,83
2018-07-15T02:46:33.138Z,83
2018-07-15T02:46:45.567Z,83
2018-07-15T02:46:57.988Z,83
2018-07-15T02:47:10.423Z,83
2018-07-15T02:47:22.839Z,83
2018-07-15T02:47:35.279Z,83
2018-07-15T02:47:47.680Z,83
2018-07-15T02:48:00.097Z,83
2018-07-15T02:48:12.540Z,83
2018-07-15T02:48:24.999Z,83
2018-07-15T02:48:37.445Z,83
2018-07-15T02:48:50.005Z,83
2018-07-15T02:49:02.442Z,83
2018-07-15T02:49:14.878Z,83
2018-07-15T02:49:27.325Z,83
2018-07-15T02:49:39.779Z,83
2018-07-15T02:49:52.222Z,83
2018-07-15T02:50:04.647Z,83
2018-07-15T02:50:17.150Z,83
2018-07-15T02:50:29.583Z,83
2018-07-15T02:50:42.015Z,83
2018-07-15T02:50:54.422Z,83
2018-07-15T02:51:06.832Z,83
2018-07-15T02:51:19.305Z,84
2018-07-15T02:51:31.720Z,84
2018-07-15T02:51:44.136Z,84
2018-07-15T02:51:56.556Z,84
2018-07-15T02:52:08.970Z,84
2018-07-15T02:52:21.482Z,84
2018-07-15T02:52:33.892Z,84
2018-07-15T02:52:46.313Z,84
2018-07-15T02:52:58.747Z,84
2018-07-15T02:53:11.396Z,84
2018-07-15T02:53:23.789Z,84
2018-07-15T02:53:36.190Z,84
2018-07-15T02:53:48.609Z,84
2018-07-15T02:54:01.040Z,84
2018-07-15T02:54:13.471Z,84
2018-07-15T02:54:25.888Z,84
2018-07-15T02:54:38.285Z,84
2018-07-15T02:54:50.712Z,84
2018-07-15T02:55:03.123Z,84
2018-07-15T02:55:15.624Z,84
2018-07-15T02:55:28.039Z,84
2018-07-15T02:55:40.452Z,84
2018-07-15T02:55:52.862Z,84
2018-07-15T02:56:05.276Z,84
2018-07-15T02:56:17.694Z,84
2018-07-15T02:56:30.098Z,83
2018-07-15T02:56:42.589Z,83
2018-07-15T02:56:54.996Z,83
2018-07-15T02:57:07.446Z,83
2018-07-15T02:57:19.895Z,83